Skip Navigation Links Skip Navigation Links

Current Weather

Kansas City Downtown, Kansas City, Mo.

For information only: do not use for flight planning or navigation.
Latest weather
Observation time Monday, October 18, 2021 3:54 PM CDT
Local time Monday, October 18, 2021 4:17 PM CDT
Flight conditions Visual Meteorological Conditions
Winds
Wind direction South (170°)
Wind speed 18 mph
Wind gusting to 24 mph
Visibility 10 mi.
Sky condition
Ceiling unlimited
Sky clear
Temperature 74°F
Dewpoint 42°F
Altimeter 30.01 in.Hg
Pressure change last 3 hours0.07 in.Hg
Pressure falling more slowly
Derived measurements
Relative humidity 32%
Density altitude 1757 ft.
Sea-level pressure 30.00 in.Hg
Remarks
Automated weather observing station with precipitation discriminator.
METAR KMKC 182054Z 17016G21KT 10SM CLR 23/06 A3001 RMK AO2 SLP159 T02330056 56024

Settings

Location code

InnerDrive.Weather 4.0.6770.0 Release CLR 4.0.30319.42000
Copyright ©2018 Inner Drive Technology. All rights reserved. Portions Copyright ©1986-2018 David Braverman.

Find weather

Site navigation


Skip Navigation Links

Place info

Page info

PayPal - The safer, easier way to pay online!

Return home.

Copyright ©2021 Inner Drive Technology. Purveyors of fine, hand-crafted computer software. Page printed 2021-10-18T21:17:32 UTC.